sensor_id;sensor_type;location;lat;lon;timestamp;pressure;altitude;pressure_sealevel;temperature;humidity
77823;BME280;67013;49.730;17.292;2023-01-20T00:01:46;97641.77;;;0.47;70.31
77823;BME280;67013;49.730;17.292;2023-01-20T00:04:16;97640.11;;;0.46;70.05
77823;BME280;67013;49.730;17.292;2023-01-20T00:06:47;97635.65;;;0.43;70.15
77823;BME280;67013;49.730;17.292;2023-01-20T00:09:17;97636.38;;;0.42;70.41
77823;BME280;67013;49.730;17.292;2023-01-20T00:11:47;97632.36;;;0.40;70.41
77823;BME280;67013;49.730;17.292;2023-01-20T00:14:17;97636.21;;;0.38;70.22
77823;BME280;67013;49.730;17.292;2023-01-20T00:16:46;97633.30;;;0.34;70.21
77823;BME280;67013;49.730;17.292;2023-01-20T00:19:16;97633.81;;;0.30;70.01
77823;BME280;67013;49.730;17.292;2023-01-20T00:21:45;97637.55;;;0.27;70.27
77823;BME280;67013;49.730;17.292;2023-01-20T00:24:15;97639.95;;;0.23;70.09
77823;BME280;67013;49.730;17.292;2023-01-20T00:26:45;97644.54;;;0.19;70.05
77823;BME280;67013;49.730;17.292;2023-01-20T00:29:14;97641.07;;;0.17;70.06
77823;BME280;67013;49.730;17.292;2023-01-20T00:31:43;97635.86;;;0.15;70.17
77823;BME280;67013;49.730;17.292;2023-01-20T00:34:13;97627.40;;;0.13;70.17
77823;BME280;67013;49.730;17.292;2023-01-20T00:36:42;97625.05;;;0.12;69.89
77823;BME280;67013;49.730;17.292;2023-01-20T00:39:12;97625.23;;;0.12;69.81
77823;BME280;67013;49.730;17.292;2023-01-20T00:41:41;97626.19;;;0.09;70.25
77823;BME280;67013;49.730;17.292;2023-01-20T00:44:11;97628.39;;;0.06;69.93
77823;BME280;67013;49.730;17.292;2023-01-20T00:46:40;97641.05;;;0.01;70.11
77823;BME280;67013;49.730;17.292;2023-01-20T00:49:12;97650.29;;;-0.03;70.14
77823;BME280;67013;49.730;17.292;2023-01-20T00:51:42;97652.69;;;-0.08;70.23
77823;BME280;67013;49.730;17.292;2023-01-20T00:54:11;97653.27;;;-0.13;70.18
77823;BME280;67013;49.730;17.292;2023-01-20T00:56:41;97649.39;;;-0.18;70.45
77823;BME280;67013;49.730;17.292;2023-01-20T00:59:11;97657.41;;;-0.22;70.31
77823;BME280;67013;49.730;17.292;2023-01-20T01:01:40;97664.06;;;-0.26;70.28
77823;BME280;67013;49.730;17.292;2023-01-20T01:04:10;97665.52;;;-0.32;70.44
77823;BME280;67013;49.730;17.292;2023-01-20T01:06:39;97670.80;;;-0.36;70.85
77823;BME280;67013;49.730;17.292;2023-01-20T01:09:09;97672.48;;;-0.40;70.74
77823;BME280;67013;49.730;17.292;2023-01-20T01:11:38;97673.27;;;-0.43;70.82
77823;BME280;67013;49.730;17.292;2023-01-20T01:14:08;97674.77;;;-0.45;71.03
77823;BME280;67013;49.730;17.292;2023-01-20T01:16:37;97681.23;;;-0.49;71.16
77823;BME280;67013;49.730;17.292;2023-01-20T01:19:07;97680.25;;;-0.50;70.95
77823;BME280;67013;49.730;17.292;2023-01-20T01:21:36;97680.92;;;-0.50;70.99
77823;BME280;67013;49.730;17.292;2023-01-20T01:24:06;97678.05;;;-0.50;70.86
77823;BME280;67013;49.730;17.292;2023-01-20T01:26:36;97683.60;;;-0.48;71.11
77823;BME280;67013;49.730;17.292;2023-01-20T01:29:05;97685.10;;;-0.48;70.90
77823;BME280;67013;49.730;17.292;2023-01-20T01:31:35;97684.04;;;-0.47;70.77
77823;BME280;67013;49.730;17.292;2023-01-20T01:34:06;97683.95;;;-0.49;70.94
77823;BME280;67013;49.730;17.292;2023-01-20T01:36:35;97687.31;;;-0.52;70.66
77823;BME280;67013;49.730;17.292;2023-01-20T01:39:04;97690.73;;;-0.56;71.04
77823;BME280;67013;49.730;17.292;2023-01-20T01:41:34;97695.85;;;-0.60;71.03
77823;BME280;67013;49.730;17.292;2023-01-20T01:44:07;97696.39;;;-0.65;71.45
77823;BME280;67013;49.730;17.292;2023-01-20T01:46:37;97698.17;;;-0.72;71.11
77823;BME280;67013;49.730;17.292;2023-01-20T01:49:10;97694.54;;;-0.79;70.92
77823;BME280;67013;49.730;17.292;2023-01-20T01:51:45;97700.44;;;-0.86;70.84
77823;BME280;67013;49.730;17.292;2023-01-20T01:54:19;97710.65;;;-0.94;71.12
77823;BME280;67013;49.730;17.292;2023-01-20T01:56:50;97720.87;;;-1.03;71.16
77823;BME280;67013;49.730;17.292;2023-01-20T01:59:20;97723.05;;;-1.11;71.54
77823;BME280;67013;49.730;17.292;2023-01-20T02:01:51;97720.77;;;-1.19;71.55
77823;BME280;67013;49.730;17.292;2023-01-20T02:04:23;97722.16;;;-1.24;71.52
77823;BME280;67013;49.730;17.292;2023-01-20T02:06:54;97723.80;;;-1.27;71.96
77823;BME280;67013;49.730;17.292;2023-01-20T02:09:26;97718.61;;;-1.30;71.65
77823;BME280;67013;49.730;17.292;2023-01-20T02:11:58;97720.89;;;-1.32;71.70
77823;BME280;67013;49.730;17.292;2023-01-20T02:14:32;97715.62;;;-1.32;71.94
77823;BME280;67013;49.730;17.292;2023-01-20T02:17:07;97709.11;;;-1.31;71.95
77823;BME280;67013;49.730;17.292;2023-01-20T02:22:44;97709.00;;;-1.33;72.01
77823;BME280;67013;49.730;17.292;2023-01-20T02:28:30;97720.38;;;-1.41;71.70
77823;BME280;67013;49.730;17.292;2023-01-20T02:34:17;97715.26;;;-1.55;71.85
77823;BME280;67013;49.730;17.292;2023-01-20T02:36:54;97714.44;;;-1.61;72.12
77823;BME280;67013;49.730;17.292;2023-01-20T02:39:29;97714.75;;;-1.65;71.53
77823;BME280;67013;49.730;17.292;2023-01-20T02:42:08;97710.98;;;-1.69;71.96
77823;BME280;67013;49.730;17.292;2023-01-20T02:44:44;97708.55;;;-1.73;71.78
77823;BME280;67013;49.730;17.292;2023-01-20T02:47:20;97702.68;;;-1.76;71.94
77823;BME280;67013;49.730;17.292;2023-01-20T02:49:54;97703.80;;;-1.79;72.06
77823;BME280;67013;49.730;17.292;2023-01-20T02:52:28;97701.56;;;-1.83;72.10
77823;BME280;67013;49.730;17.292;2023-01-20T02:55:03;97698.32;;;-1.83;72.07
77823;BME280;67013;49.730;17.292;2023-01-20T02:57:37;97697.54;;;-1.80;71.95
77823;BME280;67013;49.730;17.292;2023-01-20T03:00:15;97702.88;;;-1.77;71.75
77823;BME280;67013;49.730;17.292;2023-01-20T03:02:49;97702.81;;;-1.75;71.90
77823;BME280;67013;49.730;17.292;2023-01-20T03:05:22;97703.67;;;-1.70;71.75
77823;BME280;67013;49.730;17.292;2023-01-20T03:07:55;97708.65;;;-1.66;72.15
77823;BME280;67013;49.730;17.292;2023-01-20T03:10:28;97709.20;;;-1.63;72.11
77823;BME280;67013;49.730;17.292;2023-01-20T03:13:07;97711.38;;;-1.62;71.93
77823;BME280;67013;49.730;17.292;2023-01-20T03:15:46;97713.73;;;-1.61;71.87
77823;BME280;67013;49.730;17.292;2023-01-20T03:18:19;97717.19;;;-1.62;71.71
77823;BME280;67013;49.730;17.292;2023-01-20T03:20:49;97718.45;;;-1.64;71.76
77823;BME280;67013;49.730;17.292;2023-01-20T03:23:18;97717.38;;;-1.67;71.46
77823;BME280;67013;49.730;17.292;2023-01-20T03:25:49;97717.84;;;-1.70;71.64
77823;BME280;67013;49.730;17.292;2023-01-20T03:28:19;97720.18;;;-1.74;71.54
77823;BME280;67013;49.730;17.292;2023-01-20T03:30:48;97718.44;;;-1.78;71.62
77823;BME280;67013;49.730;17.292;2023-01-20T03:33:19;97722.84;;;-1.82;71.75
77823;BME280;67013;49.730;17.292;2023-01-20T03:35:49;97726.23;;;-1.87;71.43
77823;BME280;67013;49.730;17.292;2023-01-20T03:38:19;97727.04;;;-1.91;71.44
77823;BME280;67013;49.730;17.292;2023-01-20T03:40:52;97733.79;;;-1.93;71.74
77823;BME280;67013;49.730;17.292;2023-01-20T03:43:34;97740.38;;;-1.97;71.52
77823;BME280;67013;49.730;17.292;2023-01-20T03:46:14;97746.46;;;-2.00;71.32
77823;BME280;67013;49.730;17.292;2023-01-20T03:48:51;97749.34;;;-2.05;71.37
77823;BME280;67013;49.730;17.292;2023-01-20T03:51:27;97756.29;;;-2.09;71.43
77823;BME280;67013;49.730;17.292;2023-01-20T03:54:05;97763.12;;;-2.10;71.66
77823;BME280;67013;49.730;17.292;2023-01-20T03:56:39;97769.44;;;-2.10;71.46
77823;BME280;67013;49.730;17.292;2023-01-20T03:59:12;97778.62;;;-2.09;71.38
77823;BME280;67013;49.730;17.292;2023-01-20T04:01:43;97781.27;;;-2.07;71.38
77823;BME280;67013;49.730;17.292;2023-01-20T04:04:16;97782.17;;;-2.04;71.42
77823;BME280;67013;49.730;17.292;2023-01-20T04:06:50;97781.27;;;-2.02;71.57
77823;BME280;67013;49.730;17.292;2023-01-20T04:09:23;97782.39;;;-2.00;71.46
77823;BME280;67013;49.730;17.292;2023-01-20T04:11:54;97783.90;;;-1.99;71.71
77823;BME280;67013;49.730;17.292;2023-01-20T04:14:24;97785.45;;;-1.99;71.71
77823;BME280;67013;49.730;17.292;2023-01-20T04:16:56;97786.35;;;-2.02;71.47
77823;BME280;67013;49.730;17.292;2023-01-20T04:19:26;97786.69;;;-2.06;71.46
77823;BME280;67013;49.730;17.292;2023-01-20T04:22:02;97786.73;;;-2.14;71.44
77823;BME280;67013;49.730;17.292;2023-01-20T04:24:39;97782.52;;;-2.21;71.53
77823;BME280;67013;49.730;17.292;2023-01-20T04:27:11;97778.55;;;-2.29;71.66
77823;BME280;67013;49.730;17.292;2023-01-20T04:29:40;97773.70;;;-2.37;71.89
77823;BME280;67013;49.730;17.292;2023-01-20T04:32:11;97773.46;;;-2.46;71.98
77823;BME280;67013;49.730;17.292;2023-01-20T04:34:41;97771.13;;;-2.54;72.01
77823;BME280;67013;49.730;17.292;2023-01-20T04:37:10;97773.89;;;-2.54;72.01
77823;BME280;67013;49.730;17.292;2023-01-20T04:39:40;97772.04;;;-2.55;72.06
77823;BME280;67013;49.730;17.292;2023-01-20T04:42:10;97775.42;;;-2.55;71.82
77823;BME280;67013;49.730;17.292;2023-01-20T04:44:40;97778.84;;;-2.55;72.15
77823;BME280;67013;49.730;17.292;2023-01-20T04:47:10;97779.60;;;-2.57;72.15
77823;BME280;67013;49.730;17.292;2023-01-20T04:49:40;97777.83;;;-2.61;72.12
77823;BME280;67013;49.730;17.292;2023-01-20T04:52:09;97778.47;;;-2.66;72.40
77823;BME280;67013;49.730;17.292;2023-01-20T04:54:39;97777.59;;;-2.69;72.49
77823;BME280;67013;49.730;17.292;2023-01-20T04:57:08;97776.48;;;-2.73;72.49
77823;BME280;67013;49.730;17.292;2023-01-20T04:59:38;97773.35;;;-2.76;72.67
77823;BME280;67013;49.730;17.292;2023-01-20T05:02:07;97770.03;;;-2.79;72.62
77823;BME280;67013;49.730;17.292;2023-01-20T05:04:37;97767.10;;;-2.83;72.65
77823;BME280;67013;49.730;17.292;2023-01-20T05:07:06;97770.68;;;-2.83;72.69
77823;BME280;67013;49.730;17.292;2023-01-20T05:09:36;97773.67;;;-2.81;72.70
77823;BME280;67013;49.730;17.292;2023-01-20T05:12:06;97774.64;;;-2.80;72.45
77823;BME280;67013;49.730;17.292;2023-01-20T05:14:35;97767.79;;;-2.78;72.45
77823;BME280;67013;49.730;17.292;2023-01-20T05:17:05;97767.69;;;-2.75;72.37
77823;BME280;67013;49.730;17.292;2023-01-20T05:19:34;97768.95;;;-2.71;72.39
77823;BME280;67013;49.730;17.292;2023-01-20T05:22:03;97770.56;;;-2.68;72.39
77823;BME280;67013;49.730;17.292;2023-01-20T05:24:33;97775.23;;;-2.65;72.35
77823;BME280;67013;49.730;17.292;2023-01-20T05:27:02;97778.91;;;-2.63;72.16
77823;BME280;67013;49.730;17.292;2023-01-20T05:29:32;97782.77;;;-2.61;72.13
77823;BME280;67013;49.730;17.292;2023-01-20T05:32:01;97787.70;;;-2.61;72.15
77823;BME280;67013;49.730;17.292;2023-01-20T05:34:31;97801.30;;;-2.61;71.88
77823;BME280;67013;49.730;17.292;2023-01-20T05:37:00;97816.95;;;-2.60;71.82
77823;BME280;67013;49.730;17.292;2023-01-20T05:39:30;97830.56;;;-2.60;71.57
77823;BME280;67013;49.730;17.292;2023-01-20T05:42:00;97837.71;;;-2.60;71.50
77823;BME280;67013;49.730;17.292;2023-01-20T05:44:30;97834.64;;;-2.60;71.60
77823;BME280;67013;49.730;17.292;2023-01-20T05:47:00;97822.57;;;-2.60;71.48
77823;BME280;67013;49.730;17.292;2023-01-20T05:49:29;97822.41;;;-2.61;71.48
77823;BME280;67013;49.730;17.292;2023-01-20T05:51:59;97827.22;;;-2.62;71.65
77823;BME280;67013;49.730;17.292;2023-01-20T05:54:28;97841.17;;;-2.62;71.51
77823;BME280;67013;49.730;17.292;2023-01-20T05:56:57;97843.79;;;-2.64;71.72
77823;BME280;67013;49.730;17.292;2023-01-20T05:59:27;97842.99;;;-2.66;71.89
77823;BME280;67013;49.730;17.292;2023-01-20T06:01:57;97845.59;;;-2.67;71.92
77823;BME280;67013;49.730;17.292;2023-01-20T06:04:26;97853.72;;;-2.66;71.58
77823;BME280;67013;49.730;17.292;2023-01-20T06:06:56;97855.15;;;-2.63;71.42
77823;BME280;67013;49.730;17.292;2023-01-20T06:09:26;97855.36;;;-2.59;71.21
77823;BME280;67013;49.730;17.292;2023-01-20T06:11:55;97858.26;;;-2.53;71.09
77823;BME280;67013;49.730;17.292;2023-01-20T06:14:24;97864.73;;;-2.47;70.94
77823;BME280;67013;49.730;17.292;2023-01-20T06:16:54;97865.77;;;-2.41;70.87
77823;BME280;67013;49.730;17.292;2023-01-20T06:19:24;97865.44;;;-2.36;70.57
77823;BME280;67013;49.730;17.292;2023-01-20T06:21:53;97864.98;;;-2.33;70.64
77823;BME280;67013;49.730;17.292;2023-01-20T06:24:23;97868.65;;;-2.30;70.49
77823;BME280;67013;49.730;17.292;2023-01-20T06:26:52;97872.51;;;-2.28;70.53
77823;BME280;67013;49.730;17.292;2023-01-20T06:29:22;97877.90;;;-2.25;70.57
77823;BME280;67013;49.730;17.292;2023-01-20T06:31:51;97878.70;;;-2.24;70.78
77823;BME280;67013;49.730;17.292;2023-01-20T06:34:22;97881.55;;;-2.23;70.46
77823;BME280;67013;49.730;17.292;2023-01-20T06:36:51;97888.67;;;-2.22;70.61
77823;BME280;67013;49.730;17.292;2023-01-20T06:39:20;97884.23;;;-2.22;70.53
77823;BME280;67013;49.730;17.292;2023-01-20T06:41:50;97882.17;;;-2.22;70.37
77823;BME280;67013;49.730;17.292;2023-01-20T06:44:19;97887.79;;;-2.21;70.04
77823;BME280;67013;49.730;17.292;2023-01-20T06:46:49;97889.10;;;-2.19;70.05
77823;BME280;67013;49.730;17.292;2023-01-20T06:49:18;97885.80;;;-2.17;69.87
77823;BME280;67013;49.730;17.292;2023-01-20T06:51:48;97881.33;;;-2.15;69.87
77823;BME280;67013;49.730;17.292;2023-01-20T06:54:18;97880.40;;;-2.13;70.03
77823;BME280;67013;49.730;17.292;2023-01-20T06:56:47;97881.71;;;-2.11;69.86
77823;BME280;67013;49.730;17.292;2023-01-20T06:59:17;97884.08;;;-2.09;69.72
77823;BME280;67013;49.730;17.292;2023-01-20T07:01:46;97887.77;;;-2.08;69.73
77823;BME280;67013;49.730;17.292;2023-01-20T07:04:16;97889.01;;;-2.04;69.60
77823;BME280;67013;49.730;17.292;2023-01-20T07:06:45;97886.68;;;-2.01;69.90
77823;BME280;67013;49.730;17.292;2023-01-20T07:09:14;97882.65;;;-1.97;70.04
77823;BME280;67013;49.730;17.292;2023-01-20T07:11:44;97886.87;;;-1.91;69.93
77823;BME280;67013;49.730;17.292;2023-01-20T07:14:13;97887.66;;;-1.83;70.22
77823;BME280;67013;49.730;17.292;2023-01-20T07:16:43;97897.27;;;-1.74;69.73
77823;BME280;67013;49.730;17.292;2023-01-20T07:19:12;97902.25;;;-1.65;69.71
77823;BME280;67013;49.730;17.292;2023-01-20T07:21:42;97902.89;;;-1.53;69.46
77823;BME280;67013;49.730;17.292;2023-01-20T07:24:11;97899.45;;;-1.42;69.55
77823;BME280;67013;49.730;17.292;2023-01-20T07:26:41;97899.26;;;-1.30;69.26
77823;BME280;67013;49.730;17.292;2023-01-20T07:29:10;97903.57;;;-1.22;69.35
77823;BME280;67013;49.730;17.292;2023-01-20T07:31:40;97918.57;;;-1.11;68.71
77823;BME280;67013;49.730;17.292;2023-01-20T07:34:09;97922.02;;;-1.02;68.49
77823;BME280;67013;49.730;17.292;2023-01-20T07:36:39;97918.98;;;-0.93;69.12
77823;BME280;67013;49.730;17.292;2023-01-20T07:39:09;97913.88;;;-0.84;68.68
77823;BME280;67013;49.730;17.292;2023-01-20T07:41:40;97914.40;;;-0.75;68.26
77823;BME280;67013;49.730;17.292;2023-01-20T07:44:10;97918.35;;;-0.65;68.19
77823;BME280;67013;49.730;17.292;2023-01-20T07:46:40;97915.30;;;-0.57;67.86
77823;BME280;67013;49.730;17.292;2023-01-20T07:49:10;97913.09;;;-0.47;67.91
77823;BME280;67013;49.730;17.292;2023-01-20T07:51:40;97912.88;;;-0.37;67.76
77823;BME280;67013;49.730;17.292;2023-01-20T07:54:11;97910.10;;;-0.27;67.08
77823;BME280;67013;49.730;17.292;2023-01-20T07:56:40;97903.27;;;-0.18;66.94
77823;BME280;67013;49.730;17.292;2023-01-20T07:59:11;97899.11;;;-0.07;67.01
77823;BME280;67013;49.730;17.292;2023-01-20T08:01:42;97899.24;;;0.03;67.10
77823;BME280;67013;49.730;17.292;2023-01-20T08:04:12;97894.72;;;0.14;66.86
77823;BME280;67013;49.730;17.292;2023-01-20T08:06:41;97891.98;;;0.23;66.64
77823;BME280;67013;49.730;17.292;2023-01-20T08:09:11;97895.70;;;0.32;66.44
77823;BME280;67013;49.730;17.292;2023-01-20T08:11:41;97900.73;;;0.39;66.37
77823;BME280;67013;49.730;17.292;2023-01-20T08:14:11;97896.59;;;0.48;66.37
77823;BME280;67013;49.730;17.292;2023-01-20T08:16:40;97897.73;;;0.58;66.40
77823;BME280;67013;49.730;17.292;2023-01-20T08:19:10;97891.73;;;0.67;66.46
77823;BME280;67013;49.730;17.292;2023-01-20T08:21:39;97892.35;;;0.77;66.71
77823;BME280;67013;49.730;17.292;2023-01-20T08:24:10;97885.98;;;0.90;66.61
77823;BME280;67013;49.730;17.292;2023-01-20T08:26:39;97881.46;;;1.03;66.50
77823;BME280;67013;49.730;17.292;2023-01-20T08:29:09;97878.04;;;1.19;66.40
77823;BME280;67013;49.730;17.292;2023-01-20T08:31:39;97875.05;;;1.33;66.19
77823;BME280;67013;49.730;17.292;2023-01-20T08:34:10;97867.00;;;1.49;65.86
77823;BME280;67013;49.730;17.292;2023-01-20T08:36:41;97865.65;;;1.63;65.61
77823;BME280;67013;49.730;17.292;2023-01-20T08:39:16;97866.48;;;1.75;65.10
77823;BME280;67013;49.730;17.292;2023-01-20T08:41:48;97865.11;;;1.86;64.47
77823;BME280;67013;49.730;17.292;2023-01-20T08:44:18;97873.11;;;1.95;64.30
77823;BME280;67013;49.730;17.292;2023-01-20T08:46:48;97875.52;;;2.02;63.80
77823;BME280;67013;49.730;17.292;2023-01-20T08:49:21;97875.97;;;2.07;63.44
77823;BME280;67013;49.730;17.292;2023-01-20T08:51:52;97875.92;;;2.11;63.45
77823;BME280;67013;49.730;17.292;2023-01-20T08:54:22;97878.44;;;2.17;63.36
77823;BME280;67013;49.730;17.292;2023-01-20T08:56:52;97883.41;;;2.20;62.89
77823;BME280;67013;49.730;17.292;2023-01-20T08:59:22;97887.86;;;2.23;62.45
77823;BME280;67013;49.730;17.292;2023-01-20T09:01:51;97890.11;;;2.27;62.24
77823;BME280;67013;49.730;17.292;2023-01-20T09:04:21;97893.39;;;2.34;62.36
77823;BME280;67013;49.730;17.292;2023-01-20T09:06:51;97893.95;;;2.39;62.07
77823;BME280;67013;49.730;17.292;2023-01-20T09:09:22;97897.21;;;2.47;62.28
77823;BME280;67013;49.730;17.292;2023-01-20T09:11:51;97903.24;;;2.53;61.41
77823;BME280;67013;49.730;17.292;2023-01-20T09:14:23;97904.55;;;2.58;61.02
77823;BME280;67013;49.730;17.292;2023-01-20T09:16:53;97902.66;;;2.62;61.22
77823;BME280;67013;49.730;17.292;2023-01-20T09:19:22;97907.02;;;2.67;60.77
77823;BME280;67013;49.730;17.292;2023-01-20T09:21:52;97910.95;;;2.71;59.94
77823;BME280;67013;49.730;17.292;2023-01-20T09:24:22;97921.55;;;2.72;59.81
77823;BME280;67013;49.730;17.292;2023-01-20T09:26:52;97931.54;;;2.79;60.65
77823;BME280;67013;49.730;17.292;2023-01-20T09:29:21;97939.48;;;2.85;59.86
77823;BME280;67013;49.730;17.292;2023-01-20T09:31:52;97945.55;;;2.91;59.85
77823;BME280;67013;49.730;17.292;2023-01-20T09:34:26;97943.40;;;2.99;59.44
77823;BME280;67013;49.730;17.292;2023-01-20T09:36:58;97939.16;;;2.98;58.77
77823;BME280;67013;49.730;17.292;2023-01-20T09:39:49;97943.05;;;3.03;59.35
77823;BME280;67013;49.730;17.292;2023-01-20T09:42:45;97948.55;;;3.10;60.19
77823;BME280;67013;49.730;17.292;2023-01-20T09:45:39;97953.16;;;3.17;60.04
77823;BME280;67013;49.730;17.292;2023-01-20T09:48:15;97951.95;;;3.21;60.21
77823;BME280;67013;49.730;17.292;2023-01-20T09:51:07;97950.00;;;3.26;59.95
77823;BME280;67013;49.730;17.292;2023-01-20T09:54:01;97949.84;;;3.28;59.99
77823;BME280;67013;49.730;17.292;2023-01-20T09:56:39;97957.80;;;3.31;59.97
77823;BME280;67013;49.730;17.292;2023-01-20T09:59:13;97964.45;;;3.32;59.41
77823;BME280;67013;49.730;17.292;2023-01-20T10:01:46;97966.58;;;3.34;59.91
77823;BME280;67013;49.730;17.292;2023-01-20T10:04:18;97962.45;;;3.37;60.08
77823;BME280;67013;49.730;17.292;2023-01-20T10:06:50;97964.70;;;3.41;60.19
77823;BME280;67013;49.730;17.292;2023-01-20T10:09:23;97961.64;;;3.46;60.36
77823;BME280;67013;49.730;17.292;2023-01-20T10:12:00;97964.91;;;3.53;60.01
77823;BME280;67013;49.730;17.292;2023-01-20T10:14:34;97964.80;;;3.62;59.53
77823;BME280;67013;49.730;17.292;2023-01-20T10:17:11;97964.15;;;3.68;59.79
77823;BME280;67013;49.730;17.292;2023-01-20T10:19:43;97963.55;;;3.76;59.62
77823;BME280;67013;49.730;17.292;2023-01-20T10:22:20;97963.59;;;3.85;59.54
77823;BME280;67013;49.730;17.292;2023-01-20T10:24:54;97959.04;;;3.93;58.99
77823;BME280;67013;49.730;17.292;2023-01-20T10:27:28;97952.18;;;4.02;58.63
77823;BME280;67013;49.730;17.292;2023-01-20T10:30:05;97940.75;;;4.13;58.68
77823;BME280;67013;49.730;17.292;2023-01-20T10:32:37;97942.48;;;4.22;57.83
77823;BME280;67013;49.730;17.292;2023-01-20T10:35:13;97939.27;;;4.31;57.72
77823;BME280;67013;49.730;17.292;2023-01-20T10:37:44;97943.30;;;4.39;57.95
77823;BME280;67013;49.730;17.292;2023-01-20T10:40:30;97942.12;;;4.48;58.22
77823;BME280;67013;49.730;17.292;2023-01-20T10:43:09;97944.77;;;4.59;57.91
77823;BME280;67013;49.730;17.292;2023-01-20T10:45:49;97947.91;;;4.68;57.77
77823;BME280;67013;49.730;17.292;2023-01-20T10:48:36;97947.00;;;4.75;57.37
77823;BME280;67013;49.730;17.292;2023-01-20T10:51:13;97944.80;;;4.80;57.38
77823;BME280;67013;49.730;17.292;2023-01-20T10:53:52;97943.09;;;4.89;57.52
77823;BME280;67013;49.730;17.292;2023-01-20T10:56:37;97939.94;;;4.99;56.87
77823;BME280;67013;49.730;17.292;2023-01-20T10:59:14;97938.31;;;5.09;56.98
77823;BME280;67013;49.730;17.292;2023-01-20T11:01:47;97938.74;;;5.17;56.45
77823;BME280;67013;49.730;17.292;2023-01-20T11:04:20;97936.84;;;5.25;56.48
77823;BME280;67013;49.730;17.292;2023-01-20T11:06:53;97930.45;;;5.34;56.27
77823;BME280;67013;49.730;17.292;2023-01-20T11:09:28;97928.08;;;5.45;56.56
77823;BME280;67013;49.730;17.292;2023-01-20T11:12:03;97926.19;;;5.54;55.95
77823;BME280;67013;49.730;17.292;2023-01-20T11:14:35;97920.54;;;5.58;55.64
77823;BME280;67013;49.730;17.292;2023-01-20T11:17:08;97919.66;;;5.64;55.35
77823;BME280;67013;49.730;17.292;2023-01-20T11:19:50;97918.52;;;5.69;55.13
77823;BME280;67013;49.730;17.292;2023-01-20T11:22:25;97916.38;;;5.70;54.11
77823;BME280;67013;49.730;17.292;2023-01-20T11:24:57;97917.52;;;5.68;54.28
77823;BME280;67013;49.730;17.292;2023-01-20T11:27:29;97924.63;;;5.65;53.55
77823;BME280;67013;49.730;17.292;2023-01-20T11:30:02;97928.47;;;5.64;53.83
77823;BME280;67013;49.730;17.292;2023-01-20T11:32:32;97924.56;;;5.69;54.30
77823;BME280;67013;49.730;17.292;2023-01-20T11:35:17;97923.58;;;5.74;53.88
77823;BME280;67013;49.730;17.292;2023-01-20T11:37:46;97923.49;;;5.81;53.43
77823;BME280;67013;49.730;17.292;2023-01-20T11:40:24;97914.98;;;5.85;52.71
77823;BME280;67013;49.730;17.292;2023-01-20T11:42:54;97905.90;;;5.86;53.22
77823;BME280;67013;49.730;17.292;2023-01-20T11:45:26;97909.16;;;5.87;52.67
77823;BME280;67013;49.730;17.292;2023-01-20T11:48:16;97914.94;;;5.92;53.22
77823;BME280;67013;49.730;17.292;2023-01-20T11:50:50;97918.44;;;5.96;52.99
77823;BME280;67013;49.730;17.292;2023-01-20T11:53:25;97930.23;;;6.04;53.33
77823;BME280;67013;49.730;17.292;2023-01-20T11:55:57;97932.17;;;6.11;53.09
77823;BME280;67013;49.730;17.292;2023-01-20T11:58:30;97926.50;;;6.17;53.59
77823;BME280;67013;49.730;17.292;2023-01-20T12:01:03;97925.50;;;6.21;53.60
77823;BME280;67013;49.730;17.292;2023-01-20T12:03:57;97926.05;;;6.24;53.15
77823;BME280;67013;49.730;17.292;2023-01-20T12:06:35;97925.09;;;6.20;53.10
77823;BME280;67013;49.730;17.292;2023-01-20T12:09:11;97927.28;;;6.12;52.59
77823;BME280;67013;49.730;17.292;2023-01-20T12:11:51;97927.69;;;6.06;52.78
77823;BME280;67013;49.730;17.292;2023-01-20T12:14:24;97927.19;;;6.00;52.60
77823;BME280;67013;49.730;17.292;2023-01-20T12:17:19;97922.91;;;5.96;52.73
77823;BME280;67013;49.730;17.292;2023-01-20T12:20:05;97918.95;;;5.91;52.68
77823;BME280;67013;49.730;17.292;2023-01-20T12:22:45;97918.54;;;5.86;52.51
77823;BME280;67013;49.730;17.292;2023-01-20T12:25:24;97919.59;;;5.80;52.53
77823;BME280;67013;49.730;17.292;2023-01-20T12:27:59;97923.11;;;5.70;52.80
77823;BME280;67013;49.730;17.292;2023-01-20T12:30:58;97920.52;;;5.61;52.63
77823;BME280;67013;49.730;17.292;2023-01-20T12:33:30;97917.09;;;5.50;52.67
77823;BME280;67013;49.730;17.292;2023-01-20T12:36:16;97912.39;;;5.39;52.53
77823;BME280;67013;49.730;17.292;2023-01-20T12:38:59;97922.23;;;5.30;53.01
77823;BME280;67013;49.730;17.292;2023-01-20T12:41:46;97928.56;;;5.22;52.96
77823;BME280;67013;49.730;17.292;2023-01-20T12:44:21;97935.33;;;5.16;53.44
77823;BME280;67013;49.730;17.292;2023-01-20T12:46:56;97943.27;;;5.13;53.68
77823;BME280;67013;49.730;17.292;2023-01-20T12:49:41;97951.00;;;5.10;53.73
77823;BME280;67013;49.730;17.292;2023-01-20T12:52:34;97952.20;;;5.07;53.94
77823;BME280;67013;49.730;17.292;2023-01-20T12:55:36;97956.61;;;5.03;54.13
77823;BME280;67013;49.730;17.292;2023-01-20T12:58:16;97966.21;;;4.97;53.40
77823;BME280;67013;49.730;17.292;2023-01-20T13:04:14;97976.61;;;4.81;53.93
77823;BME280;67013;49.730;17.292;2023-01-20T13:07:06;97975.08;;;4.75;53.85
77823;BME280;67013;49.730;17.292;2023-01-20T13:10:05;97976.40;;;4.66;54.17
77823;BME280;67013;49.730;17.292;2023-01-20T13:12:46;97979.70;;;4.59;54.03
77823;BME280;67013;49.730;17.292;2023-01-20T13:15:24;97980.66;;;4.55;54.15
77823;BME280;67013;49.730;17.292;2023-01-20T13:18:12;97983.79;;;4.51;54.75
77823;BME280;67013;49.730;17.292;2023-01-20T13:20:47;97982.85;;;4.43;54.46
77823;BME280;67013;49.730;17.292;2023-01-20T13:23:21;97978.77;;;4.36;54.39
77823;BME280;67013;49.730;17.292;2023-01-20T13:25:53;97983.52;;;4.31;54.48
77823;BME280;67013;49.730;17.292;2023-01-20T13:28:25;97984.91;;;4.21;54.12
77823;BME280;67013;49.730;17.292;2023-01-20T13:30:57;97983.11;;;4.10;54.18
77823;BME280;67013;49.730;17.292;2023-01-20T13:33:36;97984.31;;;4.03;54.83
77823;BME280;67013;49.730;17.292;2023-01-20T13:36:17;97984.42;;;3.98;54.63
77823;BME280;67013;49.730;17.292;2023-01-20T13:38:49;97982.67;;;3.92;54.79